Terminal Aerodrome Forecast
Issued by NWS Memphis, TN

Home | Current Version | Previous Version | Text Only | Print | Product List | Glossary On
Versions: 1 2 3 4 5 6 7 8 9 10 11 12
000
FTUS44 KMEG 230520
TAFJBR
TAF
KJBR 230520Z 2306/2406 03005KT 5SM -SHRA BR OVC009
     FM230800 01006KT 3SM -SHRA BR OVC004
     FM231700 32008KT 5SM -SHRA BR BKN006 OVC010
     FM240100 35005KT 4SM BR VCSH OVC005=

USA.gov is the U.S. government's official web portal to all federal, state and local government web resources and services.